Time;durP1;ratioP1;P1;durP2;ratioP2;P2;SDS_P1;SDS_P2;PMS_P1;PMS_P2;Temp;Humidity;BMP_temperature;BMP_pressure;BME280_temperature;BME280_humidity;BME280_pressure;Samples;Min_cycle;Max_cycle;Signal;HPM_P1;HPM_P2
2022/07/17 00:00:56;;;;;;;6.38;3.30;;;;;;;13.54;65.68;96876.50;2048649;28;20047;-37
2022/07/17 00:01:57;;;;;;;5.03;3.00;;;;;;;13.52;65.50;96880.09;2056475;28;20054;-35
2022/07/17 00:02:58;;;;;;;6.78;3.22;;;;;;;13.51;65.72;96883.63;2048410;28;20054;-37
2022/07/17 00:03:59;;;;;;;5.80;3.03;;;;;;;13.50;65.05;96879.31;2056033;28;20055;-36
2022/07/17 00:05:00;;;;;;;7.13;3.20;;;;;;;13.47;65.17;96880.28;2055999;28;20047;-37
2022/07/17 00:06:02;;;;;;;5.47;2.88;;;;;;;13.45;64.75;96871.72;2056174;28;20065;-37
2022/07/17 00:07:03;;;;;;;6.85;3.17;;;;;;;13.41;65.69;96881.41;2064342;28;20531;-37
2022/07/17 00:08:06;;;;;;;5.50;3.20;;;;;;;13.41;65.65;96880.56;2063996;28;20782;-36
2022/07/17 00:09:08;;;;;;;5.32;2.80;;;;;;;13.42;65.07;96882.28;2064420;28;20049;-35
2022/07/17 00:10:09;;;;;;;7.18;3.40;;;;;;;13.41;64.92;96877.97;2064245;28;20134;-35
2022/07/17 00:11:10;;;;;;;6.65;2.90;;;;;;;13.40;65.49;96879.75;2048278;28;20043;-35
2022/07/17 00:12:11;;;;;;;7.35;3.22;;;;;;;13.39;65.03;96880.66;2064031;28;20050;-35
2022/07/17 00:13:12;;;;;;;6.80;3.50;;;;;;;13.35;65.21;96881.69;2048486;28;20107;-38
2022/07/17 00:14:14;;;;;;;7.68;3.53;;;;;;;13.35;66.02;96886.06;2055834;28;20054;-37
2022/07/17 00:15:15;;;;;;;6.85;3.10;;;;;;;13.33;66.32;96883.53;2056842;28;20074;-36
2022/07/17 00:16:17;;;;;;;10.00;3.60;;;;;;;13.33;66.31;96885.28;2047836;28;20047;-37
2022/07/17 00:17:19;;;;;;;13.20;3.72;;;;;;;13.29;65.79;96875.91;2056452;28;20516;-37
2022/07/17 00:18:21;;;;;;;7.18;3.50;;;;;;;13.29;65.16;96883.75;2056433;28;20519;-39
2022/07/17 00:19:22;;;;;;;4.85;2.83;;;;;;;13.28;65.20;96879.44;2056092;28;20061;-35
2022/07/17 00:20:25;;;;;;;5.93;2.80;;;;;;;13.25;65.59;96888.19;2063906;28;20077;-38
2022/07/17 00:21:26;;;;;;;5.90;3.15;;;;;;;13.22;65.08;96883.97;2056546;28;20555;-35
2022/07/17 00:22:27;;;;;;;9.00;3.13;;;;;;;13.21;65.67;96884.03;2048412;28;20429;-38
2022/07/17 00:23:28;;;;;;;6.95;3.50;;;;;;;13.18;66.06;96882.41;2040706;28;20490;-37
2022/07/17 00:24:30;;;;;;;6.18;3.17;;;;;;;13.18;66.12;96882.41;2055786;28;20050;-37
2022/07/17 00:25:32;;;;;;;8.85;3.30;;;;;;;13.20;66.52;96884.94;2056652;28;20034;-38
2022/07/17 00:26:33;;;;;;;5.18;3.22;;;;;;;13.12;66.88;96880.06;2056627;28;20046;-38
2022/07/17 00:27:35;;;;;;;7.97;3.45;;;;;;;13.10;67.21;96886.28;2048145;28;20051;-37
2022/07/17 00:28:37;;;;;;;10.32;3.58;;;;;;;13.02;66.85;96895.25;2063574;28;20042;-36
2022/07/17 00:29:38;;;;;;;7.60;3.22;;;;;;;12.98;67.50;96888.47;2055988;28;20151;-36
2022/07/17 00:30:39;;;;;;;5.28;3.42;;;;;;;12.97;68.12;96889.41;2040383;29;20051;-39
2022/07/17 00:31:40;;;;;;;7.35;3.20;;;;;;;12.96;67.67;96894.66;2056726;28;20047;-38
2022/07/17 00:32:42;;;;;;;8.93;3.30;;;;;;;12.93;67.84;96893.03;2071669;28;20053;-38
2022/07/17 00:33:43;;;;;;;7.35;3.55;;;;;;;12.92;67.95;96893.97;2072027;28;20049;-37
2022/07/17 00:34:44;;;;;;;6.50;3.70;;;;;;;12.90;68.11;96889.72;2063991;28;20046;-37
2022/07/17 00:35:45;;;;;;;8.20;3.70;;;;;;;12.87;68.47;96892.47;2064241;28;20053;-38
2022/07/17 00:36:47;;;;;;;6.75;3.55;;;;;;;12.84;68.32;96897.81;2063655;28;20058;-37
2022/07/17 00:37:49;;;;;;;7.75;4.00;;;;;;;12.80;69.23;96890.13;2064078;28;20098;-36
2022/07/17 00:38:50;;;;;;;7.53;3.95;;;;;;;12.80;68.84;96894.47;2064149;28;20054;-38
2022/07/17 00:39:51;;;;;;;6.20;3.67;;;;;;;12.76;68.86;96898.97;2063560;28;20440;-36
2022/07/17 00:40:55;;;;;;;6.53;3.65;;;;;;;12.75;69.21;96896.41;2063709;28;20046;-36
2022/07/17 00:41:56;;;;;;;7.07;3.70;;;;;;;12.73;69.13;96896.50;2071394;28;20475;-36
2022/07/17 00:42:57;;;;;;;7.28;4.25;;;;;;;12.71;69.02;96895.69;2063980;28;20522;-37
2022/07/17 00:44:09;;;;;;;5.57;3.80;;;;;;;12.69;69.45;96892.31;2065025;28;20054;-38
2022/07/17 00:45:11;;;;;;;7.40;3.60;;;;;;;12.67;68.82;96893.28;2064711;28;20054;-37
2022/07/17 00:46:13;;;;;;;7.80;3.70;;;;;;;12.66;68.77;96894.19;2055969;28;20428;-37
2022/07/17 00:47:17;;;;;;;7.65;4.10;;;;;;;12.63;68.68;96891.72;2056560;28;20046;-37
2022/07/17 00:48:18;;;;;;;6.85;3.58;;;;;;;12.63;68.93;96892.56;2056628;28;20046;-38
2022/07/17 00:49:19;;;;;;;5.95;3.47;;;;;;;12.63;68.62;96889.13;2048591;28;20051;-37
2022/07/17 00:50:22;;;;;;;8.43;3.88;;;;;;;12.60;68.64;96892.69;2056684;28;20046;-35
2022/07/17 00:51:23;;;;;;;10.43;3.90;;;;;;;12.58;69.19;96886.69;2056472;28;20536;-37
2022/07/17 00:52:24;;;;;;;7.07;4.15;;;;;;;12.57;68.90;96892.81;2048838;28;20047;-38
2022/07/17 00:53:26;;;;;;;7.03;3.60;;;;;;;12.56;69.18;96891.97;2040541;29;20548;-37
2022/07/17 00:54:27;;;;;;;6.03;3.70;;;;;;;12.56;68.59;96886.78;2056354;28;20127;-37
2022/07/17 00:55:28;;;;;;;6.63;3.85;;;;;;;12.55;69.28;96890.25;2048460;28;20047;-36
2022/07/17 00:56:29;;;;;;;8.23;3.92;;;;;;;12.55;69.31;96882.44;2056531;28;20513;-36
2022/07/17 00:57:30;;;;;;;7.93;4.20;;;;;;;12.53;69.21;96884.25;2040774;29;20513;-37
2022/07/17 00:58:35;;;;;;;6.45;3.65;;;;;;;12.51;70.20;96880.91;2040284;29;20047;-36
2022/07/17 00:59:37;;;;;;;7.80;4.13;;;;;;;12.50;70.42;96880.94;2063844;28;20046;-38
2022/07/17 01:00:38;;;;;;;6.43;3.88;;;;;;;12.49;70.04;96887.06;2063987;28;20042;-36
2022/07/17 01:01:39;;;;;;;6.63;3.63;;;;;;;12.47;69.71;96881.91;2064361;28;20073;-37
2022/07/17 01:02:43;;;;;;;7.18;3.80;;;;;;;12.46;70.38;96879.38;2064240;28;20061;-39
2022/07/17 01:03:45;;;;;;;5.88;4.20;;;;;;;12.45;68.99;96883.72;2056572;28;20484;-39
2022/07/17 01:04:46;;;;;;;8.05;3.72;;;;;;;12.47;69.36;96881.06;2064135;28;20054;-36
2022/07/17 01:05:47;;;;;;;7.38;4.05;;;;;;;12.50;69.38;96875.72;2056412;28;20066;-37
2022/07/17 01:06:48;;;;;;;8.80;3.90;;;;;;;12.54;69.47;96879.91;2064096;28;20046;-37
2022/07/17 01:07:49;;;;;;;6.70;3.58;;;;;;;12.57;68.87;96882.41;2071533;28;20526;-35
2022/07/17 01:08:51;;;;;;;7.85;3.67;;;;;;;12.60;68.36;96877.06;2047733;29;20047;-37
2022/07/17 01:09:52;;;;;;;9.07;3.90;;;;;;;12.60;67.90;96876.22;2048390;28;20062;-37
2022/07/17 01:10:53;;;;;;;7.45;3.38;;;;;;;12.58;68.75;96874.50;2071293;28;20041;-36
2022/07/17 01:11:55;;;;;;;6.32;3.33;;;;;;;12.61;69.37;96870.91;2072081;28;20384;-37
2022/07/17 01:12:56;;;;;;;7.00;3.63;;;;;;;12.60;68.58;96877.06;2071914;28;20057;-36
2022/07/17 01:13:57;;;;;;;5.97;3.42;;;;;;;12.54;68.63;96878.16;2064005;28;20599;-37
2022/07/17 01:14:58;;;;;;;8.32;3.92;;;;;;;12.58;69.17;96873.66;2040608;29;20052;-37
2022/07/17 01:16:00;;;;;;;6.43;3.63;;;;;;;12.55;69.84;96879.00;2048394;28;20051;-38
2022/07/17 01:17:01;;;;;;;6.95;3.88;;;;;;;12.53;70.85;96879.06;2048427;28;20100;-36
2022/07/17 01:18:07;;;;;;;10.77;3.72;;;;;;;12.50;70.89;96875.72;2040373;29;20067;-37
2022/07/17 01:19:09;;;;;;;7.47;4.22;;;;;;;12.45;71.14;96881.13;2050184;28;20051;-37
2022/07/17 01:20:10;;;;;;;8.88;3.95;;;;;;;12.42;71.57;96878.66;2064170;28;20046;-37
2022/07/17 01:21:11;;;;;;;7.82;3.58;;;;;;;12.41;71.66;96876.13;2056277;28;20118;-39
2022/07/17 01:22:12;;;;;;;6.65;3.90;;;;;;;12.39;72.24;96873.56;2055275;28;20062;-37
2022/07/17 01:23:15;;;;;;;6.05;3.65;;;;;;;12.39;72.23;96876.16;2057285;28;20050;-38
2022/07/17 01:24:16;;;;;;;5.43;3.78;;;;;;;12.36;71.83;96884.94;2071873;28;20057;-37
2022/07/17 01:25:20;;;;;;;7.13;3.58;;;;;;;12.34;71.30;96881.56;2063764;28;20057;-36
2022/07/17 01:26:21;;;;;;;5.85;3.60;;;;;;;12.34;71.54;96880.72;2064224;28;20520;-37
2022/07/17 01:27:22;;;;;;;12.63;4.28;;;;;;;12.34;70.90;96891.13;2064487;28;20050;-37
2022/07/17 01:28:23;;;;;;;6.93;4.00;;;;;;;12.33;71.64;96890.28;2064282;28;20061;-36
2022/07/17 01:29:25;;;;;;;7.55;3.92;;;;;;;12.31;71.46;96884.28;2057705;28;20038;-36
2022/07/17 01:30:26;;;;;;;9.43;3.78;;;;;;;12.29;72.44;96885.25;2071620;28;20041;-39
2022/07/17 01:31:27;;;;;;;7.93;3.85;;;;;;;12.26;72.55;96894.03;2063948;28;20046;-37
2022/07/17 01:32:33;;;;;;;7.80;3.85;;;;;;;12.24;72.16;96889.78;2047686;29;20428;-36
2022/07/17 01:33:34;;;;;;;9.98;4.07;;;;;;;12.24;72.95;96888.06;2050194;28;20436;-38
2022/07/17 01:34:35;;;;;;;9.98;3.97;;;;;;;12.20;72.83;96896.88;2056057;28;20043;-34
2022/07/17 01:35:36;;;;;;;7.43;4.20;;;;;;;12.21;72.04;96892.53;2048269;28;20051;-37
2022/07/17 01:36:37;;;;;;;5.10;3.53;;;;;;;12.21;72.41;96889.91;2063747;28;20046;-36
2022/07/17 01:37:39;;;;;;;6.05;3.60;;;;;;;12.20;72.59;96891.69;2072520;28;20058;-36
2022/07/17 01:38:41;;;;;;;8.07;4.57;;;;;;;12.18;73.27;96897.84;2063632;28;20050;-37
2022/07/17 01:39:58;;;;;;;7.38;4.10;;;;;;;12.16;72.80;96890.09;2056996;28;20610;-38
2022/07/17 01:40:59;;;;;;;6.75;3.92;;;;;;;12.14;73.21;96894.53;2059351;28;20047;-37
2022/07/17 01:42:00;;;;;;;8.35;3.95;;;;;;;12.12;73.67;96891.97;2052139;28;20525;-36
2022/07/17 01:43:01;;;;;;;7.22;3.97;;;;;;;12.12;73.55;96886.78;2049365;28;20441;-36
2022/07/17 01:44:03;;;;;;;6.57;3.70;;;;;;;12.10;74.28;96890.34;2065580;28;20054;-37
2022/07/17 01:45:05;;;;;;;5.68;3.78;;;;;;;12.08;73.53;96890.41;2057565;28;20436;-37
2022/07/17 01:46:07;;;;;;;6.32;3.60;;;;;;;12.08;73.58;96890.41;2050189;28;20055;-38
2022/07/17 01:47:08;;;;;;;6.07;3.85;;;;;;;12.07;73.75;96887.88;2041962;28;20054;-36
2022/07/17 01:48:09;;;;;;;6.78;4.00;;;;;;;12.05;73.29;96890.50;2049513;29;20485;-36
2022/07/17 01:49:11;;;;;;;7.28;4.30;;;;;;;12.05;73.21;96887.91;2065447;28;20708;-36
2022/07/17 01:50:12;;;;;;;6.20;3.85;;;;;;;12.04;73.99;96885.38;2057202;28;20055;-37
2022/07/17 01:51:14;;;;;;;8.73;4.07;;;;;;;12.04;73.72;96891.44;2058158;28;20542;-36
2022/07/17 01:52:15;;;;;;;6.63;3.88;;;;;;;12.02;73.78;96885.44;2057053;28;20051;-38
2022/07/17 01:53:16;;;;;;;5.22;3.75;;;;;;;12.03;74.01;96889.75;2065169;28;20054;-35
2022/07/17 01:54:17;;;;;;;10.25;3.90;;;;;;;12.01;73.85;96888.09;2065118;28;20042;-36
2022/07/17 01:55:19;;;;;;;6.35;3.88;;;;;;;11.99;74.04;96885.56;2057358;28;20674;-38
2022/07/17 01:56:20;;;;;;;6.00;3.90;;;;;;;11.98;74.12;96883.88;2064284;28;20042;-37
2022/07/17 01:57:21;;;;;;;6.57;3.95;;;;;;;11.97;74.83;96887.34;2065870;28;20546;-38
2022/07/17 01:58:22;;;;;;;6.10;4.00;;;;;;;11.98;74.77;96877.81;2065212;28;20042;-37
2022/07/17 01:59:23;;;;;;;6.68;3.95;;;;;;;11.95;74.81;96885.72;2072689;28;20045;-36
2022/07/17 02:00:25;;;;;;;9.45;4.50;;;;;;;11.94;74.00;96891.84;2056867;28;20054;-36
2022/07/17 02:01:27;;;;;;;4.82;3.85;;;;;;;11.91;74.21;96882.41;2057591;28;20532;-34
2022/07/17 02:02:28;;;;;;;7.05;3.80;;;;;;;11.91;73.61;96887.59;2065480;28;20408;-37
2022/07/17 02:03:29;;;;;;;7.60;4.13;;;;;;;11.92;73.79;96884.09;2049636;28;20102;-36
2022/07/17 02:04:31;;;;;;;5.93;3.58;;;;;;;11.92;73.91;96891.88;2041174;29;20039;-37
2022/07/17 02:05:32;;;;;;;6.93;3.88;;;;;;;11.90;73.84;96885.91;2057558;28;20547;-37
2022/07/17 02:06:33;;;;;;;8.07;4.32;;;;;;;11.88;74.37;96882.53;2049701;28;20047;-35
2022/07/17 02:07:36;;;;;;;7.30;4.00;;;;;;;11.86;73.59;96889.53;2057037;28;20054;-35
2022/07/17 02:08:37;;;;;;;5.68;4.22;;;;;;;11.84;74.46;96886.09;2057368;28;20046;-35
2022/07/17 02:09:38;;;;;;;7.35;3.97;;;;;;;11.83;74.05;96884.41;2065170;28;20054;-36
2022/07/17 02:10:40;;;;;;;5.90;4.18;;;;;;;11.81;74.48;96881.84;2049481;28;20043;-38
2022/07/17 02:11:41;;;;;;;6.50;3.90;;;;;;;11.79;74.35;96882.84;2063601;28;20046;-36
2022/07/17 02:12:43;;;;;;;9.05;4.20;;;;;;;11.78;74.70;96886.34;2056998;28;20432;-37
2022/07/17 02:13:44;;;;;;;7.40;4.15;;;;;;;11.76;74.38;96885.53;2050432;28;20047;-36
2022/07/17 02:14:45;;;;;;;10.27;4.90;;;;;;;11.75;75.78;96881.25;2057380;28;20404;-36
2022/07/17 02:15:46;;;;;;;8.77;4.05;;;;;;;11.74;75.97;96884.78;2056947;28;20051;-37
2022/07/17 02:16:48;;;;;;;11.30;4.40;;;;;;;11.72;75.90;96884.81;2064873;28;20042;-38
2022/07/17 02:17:49;;;;;;;6.90;4.10;;;;;;;11.72;76.87;96886.59;2073506;28;20050;-36
2022/07/17 02:18:51;;;;;;;7.70;4.22;;;;;;;11.72;76.63;96884.81;2065359;28;20042;-37
2022/07/17 02:19:52;;;;;;;6.05;4.07;;;;;;;11.70;76.61;96879.66;2057800;28;20057;-38
2022/07/17 02:20:54;;;;;;;6.18;4.57;;;;;;;11.68;76.78;96881.50;2049018;29;20062;-36
2022/07/17 02:21:55;;;;;;;9.60;4.80;;;;;;;11.66;77.39;96878.09;2057098;28;20047;-39
2022/07/17 02:22:56;;;;;;;6.13;4.47;;;;;;;11.66;77.29;96885.06;2073076;28;20048;-38
2022/07/17 02:23:57;;;;;;;9.65;4.57;;;;;;;11.62;77.03;96875.66;2066003;28;20053;-36
2022/07/17 02:24:58;;;;;;;6.53;4.85;;;;;;;11.62;76.87;96873.91;2048540;28;20051;-37
2022/07/17 02:25:59;;;;;;;7.55;4.38;;;;;;;11.60;78.02;96877.47;2049033;29;20059;-36
2022/07/17 02:27:00;;;;;;;6.05;4.35;;;;;;;11.59;78.12;96878.38;2033989;29;20044;-37
2022/07/17 02:28:02;;;;;;;9.35;4.93;;;;;;;11.57;77.08;96872.38;2049286;28;20051;-36
2022/07/17 02:29:03;;;;;;;6.30;4.32;;;;;;;11.55;77.88;96869.84;2056778;28;20054;-36
2022/07/17 02:30:06;;;;;;;6.25;4.53;;;;;;;11.54;77.87;96868.13;2056281;28;20054;-38
2022/07/17 02:31:07;;;;;;;6.97;4.20;;;;;;;11.53;78.08;96866.44;2065091;28;20046;-37
2022/07/17 02:32:08;;;;;;;8.05;4.70;;;;;;;11.51;77.75;96865.66;2064628;28;20038;-35
2022/07/17 02:33:09;;;;;;;6.50;4.43;;;;;;;11.52;77.50;96867.38;2049532;28;20047;-37
2022/07/17 02:34:11;;;;;;;9.07;4.80;;;;;;;11.50;78.39;96870.94;2041936;29;20525;-39
2022/07/17 02:35:12;;;;;;;6.65;4.80;;;;;;;11.47;77.72;96867.53;2041290;28;20047;-35
2022/07/17 02:36:13;;;;;;;7.57;5.22;;;;;;;11.46;77.71;96865.81;2049038;28;20051;-36
2022/07/17 02:37:15;;;;;;;8.40;4.78;;;;;;;11.43;78.74;96868.53;2057067;28;20043;-38
2022/07/17 02:38:16;;;;;;;9.30;4.50;;;;;;;11.40;78.97;96873.00;2064922;28;20061;-37
2022/07/17 02:39:17;;;;;;;6.47;4.60;;;;;;;11.39;78.43;96873.94;2057187;28;20070;-36
2022/07/17 02:40:18;;;;;;;5.93;4.60;;;;;;;11.38;78.89;96873.06;2057668;28;20046;-36
2022/07/17 02:41:20;;;;;;;6.40;4.97;;;;;;;11.36;77.90;96876.63;2057098;28;20038;-37
2022/07/17 02:42:22;;;;;;;8.02;4.68;;;;;;;11.33;77.86;96872.38;2057515;28;20054;-36
2022/07/17 02:43:23;;;;;;;7.93;4.43;;;;;;;11.31;77.52;96878.56;2072428;28;20048;-37
2022/07/17 02:44:24;;;;;;;6.85;4.53;;;;;;;11.30;78.39;96871.63;2065210;28;20065;-36
2022/07/17 02:45:25;;;;;;;7.80;4.60;;;;;;;11.29;77.96;96875.16;2048850;29;20039;-38
2022/07/17 02:46:27;;;;;;;11.10;4.60;;;;;;;11.27;78.23;96872.59;2032762;29;20059;-36
2022/07/17 02:47:29;;;;;;;8.15;4.82;;;;;;;11.26;78.63;96874.34;2040950;29;20039;-36
2022/07/17 02:48:30;;;;;;;10.93;4.97;;;;;;;11.24;77.83;96881.34;2057190;28;20051;-35
2022/07/17 02:49:32;;;;;;;6.75;4.75;;;;;;;11.23;78.19;96879.66;2049299;28;20039;-37
2022/07/17 02:50:33;;;;;;;7.05;4.38;;;;;;;11.22;78.30;96879.72;2057358;28;20050;-36
2022/07/17 02:51:34;;;;;;;8.20;4.72;;;;;;;11.19;77.79;96877.22;2072407;28;20060;-37
2022/07/17 02:52:35;;;;;;;6.60;4.70;;;;;;;11.17;78.51;96882.50;2065518;28;20053;-35
2022/07/17 02:53:37;;;;;;;9.00;4.38;;;;;;;11.17;78.25;96877.31;2064916;28;20050;-36
2022/07/17 02:54:38;;;;;;;8.45;4.50;;;;;;;11.16;78.41;96877.34;2057225;28;20501;-37
2022/07/17 02:55:39;;;;;;;9.15;4.90;;;;;;;11.14;78.24;96879.97;2065634;28;20051;-36
2022/07/17 02:56:40;;;;;;;9.32;5.38;;;;;;;11.13;78.21;96883.50;2064581;28;20050;-36
2022/07/17 02:57:41;;;;;;;6.50;4.78;;;;;;;11.09;78.12;96881.88;2049460;28;20050;-36
2022/07/17 02:58:43;;;;;;;6.25;4.35;;;;;;;11.09;78.53;96884.50;2057693;28;20051;-37
2022/07/17 02:59:44;;;;;;;8.18;4.70;;;;;;;11.08;78.49;96880.22;2065153;28;20046;-38
2022/07/17 03:00:45;;;;;;;10.73;5.05;;;;;;;11.06;77.92;96882.00;2064587;28;20054;-36
2022/07/17 03:01:46;;;;;;;11.75;5.20;;;;;;;11.03;78.71;96875.16;2064631;28;20042;-36
2022/07/17 03:02:47;;;;;;;6.80;4.90;;;;;;;11.03;79.22;96877.75;2064290;28;20050;-35
2022/07/17 03:03:48;;;;;;;10.00;5.03;;;;;;;11.02;79.05;96878.66;2056800;28;20042;-37
2022/07/17 03:04:50;;;;;;;8.93;5.45;;;;;;;11.01;79.43;96881.31;2049081;28;20058;-37
2022/07/17 03:05:51;;;;;;;11.05;5.50;;;;;;;11.02;78.72;96875.22;2056162;28;20115;-38
2022/07/17 03:06:52;;;;;;;9.63;5.40;;;;;;;11.00;79.18;96874.44;2049070;28;20047;-39
2022/07/17 03:07:53;;;;;;;10.18;5.82;;;;;;;11.00;79.32;96871.84;2048863;29;20047;-37
2022/07/17 03:08:54;;;;;;;8.93;5.15;;;;;;;11.01;78.75;96865.72;2056930;28;20051;-38
2022/07/17 03:09:55;;;;;;;8.73;5.55;;;;;;;11.00;79.62;96869.22;2064860;28;20527;-37
2022/07/17 03:10:56;;;;;;;7.93;5.25;;;;;;;10.99;78.87;96873.59;2064723;28;20057;-36
2022/07/17 03:11:58;;;;;;;7.40;5.45;;;;;;;10.98;79.74;96873.63;2056013;28;20047;-36
2022/07/17 03:12:59;;;;;;;9.32;5.88;;;;;;;10.96;79.19;96865.91;2056309;28;20417;-37
2022/07/17 03:14:00;;;;;;;7.57;5.22;;;;;;;10.95;79.39;96873.75;2085841;23;20046;-43
2022/07/17 03:15:02;;;;;;;6.32;5.28;;;;;;;10.98;79.88;96876.22;2063979;28;20061;-41
2022/07/17 03:16:04;;;;;;;8.65;5.22;;;;;;;10.96;78.84;96870.22;2057267;28;20417;-38
2022/07/17 03:17:05;;;;;;;7.55;5.03;;;;;;;10.94;79.17;96867.69;2048742;28;20561;-40
2022/07/17 03:18:07;;;;;;;8.95;5.55;;;;;;;10.93;79.29;96868.63;2049174;28;20047;-44
2022/07/17 03:19:08;;;;;;;10.77;5.70;;;;;;;10.92;78.91;96864.28;2056749;28;20423;-38
2022/07/17 03:20:10;;;;;;;9.43;4.95;;;;;;;10.93;79.14;96868.63;2072642;28;20062;-39
2022/07/17 03:21:11;;;;;;;9.20;5.43;;;;;;;10.93;78.63;96868.63;2064299;28;20054;-43
2022/07/17 03:22:12;;;;;;;9.15;5.18;;;;;;;10.94;79.66;96867.69;2072055;28;20050;-40
2022/07/17 03:23:13;;;;;;;9.18;5.18;;;;;;;10.94;79.48;96877.25;2072856;28;20052;-42
2022/07/17 03:24:14;;;;;;;8.43;5.43;;;;;;;10.93;80.22;96875.53;2053790;28;20042;-39
2022/07/17 03:25:16;;;;;;;9.10;5.57;;;;;;;10.93;80.39;96871.22;2049252;28;20437;-40
2022/07/17 03:26:17;;;;;;;8.43;5.22;;;;;;;10.92;80.63;96879.88;2056168;28;20169;-43
2022/07/17 03:27:18;;;;;;;6.70;5.03;;;;;;;10.92;80.38;96882.47;2056906;28;20042;-40
2022/07/17 03:28:19;;;;;;;14.02;5.60;;;;;;;10.93;80.37;96876.41;2048664;28;20409;-41
2022/07/17 03:29:21;;;;;;;7.30;5.45;;;;;;;10.93;79.67;96871.22;2048588;29;20047;-39
2022/07/17 03:30:22;;;;;;;9.88;5.35;;;;;;;10.92;80.56;96869.50;2056442;28;20046;-39
2022/07/17 03:31:23;;;;;;;8.98;4.97;;;;;;;10.81;80.28;96862.06;2048859;28;20061;-39
2022/07/17 03:32:24;;;;;;;12.27;5.60;;;;;;;10.90;80.49;96881.69;2040341;29;20050;-41
2022/07/17 03:33:25;;;;;;;8.07;5.63;;;;;;;10.90;81.41;96875.66;2049226;28;20054;-42
2022/07/17 03:34:26;;;;;;;9.20;5.68;;;;;;;10.88;81.25;96880.91;2056611;28;20042;-41
2022/07/17 03:35:28;;;;;;;8.32;5.53;;;;;;;10.87;81.43;96887.00;2056921;28;20053;-41
2022/07/17 03:36:29;;;;;;;7.95;5.40;;;;;;;10.87;81.27;96878.34;2056702;28;20051;-39
2022/07/17 03:37:30;;;;;;;10.20;5.55;;;;;;;10.85;81.23;96878.38;2048269;29;20070;-41
2022/07/17 03:38:32;;;;;;;7.70;5.65;;;;;;;10.87;80.57;96886.16;2056496;28;20043;-40
2022/07/17 03:39:33;;;;;;;11.55;5.60;;;;;;;10.85;81.59;96883.59;2064111;28;20122;-41
2022/07/17 03:40:34;;;;;;;13.38;5.65;;;;;;;10.85;80.96;96881.00;2056257;28;20043;-39
2022/07/17 03:41:35;;;;;;;9.05;4.95;;;;;;;10.85;80.74;96878.38;2048596;28;20055;-38
2022/07/17 03:42:36;;;;;;;8.82;5.50;;;;;;;10.85;81.89;96878.38;2040365;29;20050;-40
2022/07/17 03:43:37;;;;;;;9.10;4.93;;;;;;;10.84;80.89;96875.88;2048296;29;20047;-42
2022/07/17 03:44:39;;;;;;;7.78;5.15;;;;;;;10.85;81.14;96878.38;2056131;28;20054;-41
2022/07/17 03:45:40;;;;;;;7.28;5.00;;;;;;;10.88;81.93;96877.44;2033152;29;20051;-44
2022/07/17 03:46:41;;;;;;;6.78;5.47;;;;;;;10.88;81.43;96878.31;2048708;28;20055;-41
2022/07/17 03:47:42;;;;;;;7.60;5.07;;;;;;;10.93;81.68;96883.31;2056001;28;20043;-43
2022/07/17 03:48:43;;;;;;;10.40;5.35;;;;;;;10.94;81.46;96880.69;2048589;29;20050;-40
2022/07/17 03:49:44;;;;;;;9.13;5.30;;;;;;;10.96;81.90;96880.63;2056779;28;20066;-42
2022/07/17 03:50:46;;;;;;;7.70;5.78;;;;;;;10.98;81.50;96879.66;2056656;28;20054;-41
2022/07/17 03:51:47;;;;;;;8.48;5.30;;;;;;;11.00;81.39;96879.63;2056695;28;20433;-40
2022/07/17 03:52:48;;;;;;;7.18;4.75;;;;;;;11.01;80.52;96877.00;2049033;28;20055;-44
2022/07/17 03:53:49;;;;;;;7.57;5.10;;;;;;;11.03;80.25;96876.91;2048823;29;20047;-41
2022/07/17 03:54:50;;;;;;;10.15;5.47;;;;;;;11.03;80.84;96875.16;2056395;28;20421;-41
2022/07/17 03:55:51;;;;;;;7.50;5.07;;;;;;;11.06;80.52;96884.59;2048661;29;20563;-40
2022/07/17 03:56:53;;;;;;;9.00;5.60;;;;;;;11.08;80.53;96874.16;2040679;29;20474;-43
2022/07/17 03:57:54;;;;;;;8.82;5.35;;;;;;;11.10;80.66;96881.00;2048406;29;20043;-41
2022/07/17 03:58:55;;;;;;;8.68;4.80;;;;;;;11.13;79.73;96873.09;2056562;28;20091;-42
2022/07/17 03:59:56;;;;;;;8.85;5.25;;;;;;;11.17;79.66;96885.09;2056475;28;20061;-41
2022/07/17 04:00:58;;;;;;;7.07;5.10;;;;;;;11.18;79.96;96883.34;2056769;28;20521;-42
2022/07/17 04:01:59;;;;;;;11.23;5.50;;;;;;;11.19;80.63;96882.44;2056747;28;20062;-44
2022/07/17 04:03:00;;;;;;;8.23;5.00;;;;;;;11.21;79.43;96886.66;2056759;28;20057;-42
2022/07/17 04:04:01;;;;;;;8.52;5.18;;;;;;;11.22;79.73;96887.50;2040741;29;20525;-42
2022/07/17 04:05:03;;;;;;;9.25;5.63;;;;;;;11.26;79.20;96894.31;2040639;28;20471;-42
2022/07/17 04:06:04;;;;;;;8.02;5.13;;;;;;;11.27;79.99;96891.63;2056591;28;20524;-40
2022/07/17 04:07:05;;;;;;;7.10;5.05;;;;;;;11.29;80.89;96889.00;2064116;28;20053;-40
2022/07/17 04:08:06;;;;;;;8.88;5.60;;;;;;;11.32;80.30;96890.66;2064254;28;20077;-38
2022/07/17 04:09:08;;;;;;;6.10;5.03;;;;;;;11.35;80.90;96891.38;2064906;28;20054;-39
2022/07/17 04:10:10;;;;;;;8.30;5.35;;;;;;;11.36;80.62;96892.22;2056523;28;20648;-44
2022/07/17 04:11:12;;;;;;;12.35;5.30;;;;;;;11.37;80.03;96886.97;2064524;28;20053;-41
2022/07/17 04:12:13;;;;;;;9.57;5.25;;;;;;;11.39;79.56;96881.72;2056241;28;20062;-40
2022/07/17 04:13:14;;;;;;;8.75;5.40;;;;;;;11.42;79.68;96884.22;2056851;28;20043;-42
2022/07/17 04:14:15;;;;;;;9.85;4.82;;;;;;;11.45;80.15;96892.75;2048668;28;20043;-44
2022/07/17 04:15:49;;;;;;;9.55;5.13;;;;;;;11.48;79.62;96886.59;2048951;28;20047;-42
2022/07/17 04:16:38;;;;;;;7.18;5.40;;;;;;;11.52;79.66;96893.38;2061658;28;20047;-41
2022/07/17 04:17:39;;;;;;;8.30;5.32;;;;;;;11.58;79.80;96894.91;2059584;28;20061;-40
2022/07/17 04:18:40;;;;;;;8.93;5.35;;;;;;;11.61;79.73;96890.44;2056488;28;20057;-41
2022/07/17 04:19:41;;;;;;;9.23;5.07;;;;;;;11.66;79.56;96888.50;2057072;28;20073;-44
2022/07/17 04:20:42;;;;;;;9.50;5.63;;;;;;;11.70;78.97;96884.03;2056488;28;20054;-42
2022/07/17 04:21:44;;;;;;;11.68;5.25;;;;;;;11.76;78.52;96883.81;2057042;28;20069;-46
2022/07/17 04:22:45;;;;;;;7.53;4.97;;;;;;;11.80;78.61;96885.38;2056193;28;20117;-41
2022/07/17 04:23:46;;;;;;;9.95;5.40;;;;;;;11.85;78.01;96890.41;2060177;28;20523;-41
2022/07/17 04:24:48;;;;;;;8.18;5.22;;;;;;;11.88;78.48;96880.75;2063938;28;20046;-42
2022/07/17 04:25:49;;;;;;;10.88;5.30;;;;;;;11.94;77.73;96882.28;2072812;28;20053;-41
2022/07/17 04:26:50;;;;;;;7.95;5.05;;;;;;;12.00;77.94;96883.78;2063757;28;20050;-41
2022/07/17 04:27:51;;;;;;;10.18;5.78;;;;;;;11.93;76.86;96869.34;2048128;28;20050;-39
2022/07/17 04:28:53;;;;;;;9.43;5.35;;;;;;;12.07;76.62;96893.91;2056587;28;20061;-41
2022/07/17 04:29:54;;;;;;;10.55;5.47;;;;;;;12.12;76.01;96886.78;2058680;28;20436;-42
2022/07/17 04:30:55;;;;;;;8.20;6.00;;;;;;;12.17;76.26;96883.16;2040088;29;20086;-40
2022/07/17 04:31:56;;;;;;;12.88;6.00;;;;;;;12.24;76.30;96889.78;2040722;29;20544;-43
2022/07/17 04:32:57;;;;;;;10.45;5.45;;;;;;;12.29;76.04;96885.25;2056156;28;20546;-39
2022/07/17 04:33:59;;;;;;;8.77;5.40;;;;;;;12.33;75.51;96882.47;2056399;28;20061;-39
2022/07/17 04:35:00;;;;;;;10.32;5.15;;;;;;;12.39;75.52;96883.16;2055893;28;20050;-44
2022/07/17 04:36:01;;;;;;;7.65;4.80;;;;;;;12.44;74.86;96889.00;2056578;28;20043;-41
2022/07/17 04:37:02;;;;;;;9.93;4.82;;;;;;;12.51;74.21;96885.22;2048062;28;20094;-43
2022/07/17 04:38:04;;;;;;;8.98;5.38;;;;;;;12.55;74.12;96890.25;2055886;28;20519;-40
2022/07/17 04:39:05;;;;;;;9.07;5.47;;;;;;;12.61;72.95;96883.09;2063932;28;20058;-41
2022/07/17 04:40:07;;;;;;;9.38;5.50;;;;;;;12.68;72.27;96889.78;2063937;28;20057;-41
2022/07/17 04:41:09;;;;;;;10.57;5.32;;;;;;;12.72;73.11;96892.19;2048507;29;20055;-41
2022/07/17 04:42:10;;;;;;;10.70;4.65;;;;;;;12.76;72.60;96890.31;2047523;28;20544;-41
2022/07/17 04:43:11;;;;;;;6.72;5.20;;;;;;;12.82;72.03;96892.63;2056177;28;20058;-40
2022/07/17 04:44:12;;;;;;;7.80;5.78;;;;;;;12.85;71.89;96891.66;2048020;28;20493;-43
2022/07/17 04:45:14;;;;;;;9.52;5.18;;;;;;;12.89;71.90;96895.84;2056009;28;20051;-41
2022/07/17 04:46:15;;;;;;;8.68;4.93;;;;;;;12.94;71.04;96901.72;2056405;28;20501;-42
2022/07/17 04:47:16;;;;;;;9.02;5.05;;;;;;;12.98;70.50;96893.69;2056515;28;20050;-40
2022/07/17 04:48:17;;;;;;;8.30;5.28;;;;;;;13.06;68.07;96884.69;2063911;28;20038;-41
2022/07/17 04:49:18;;;;;;;6.57;5.00;;;;;;;13.19;67.44;96885.88;2048586;28;20043;-40